createdAt,value
2018-10-06T00:01:58.579Z,10.05
2018-10-06T00:06:34.406Z,10.15
2018-10-06T00:09:04.137Z,10.80
2018-10-06T00:11:32.079Z,9.95
2018-10-06T00:13:59.949Z,10.80
2018-10-06T00:16:27.796Z,10.40
2018-10-06T00:18:55.705Z,10.25
2018-10-06T00:21:23.552Z,11.30
2018-10-06T00:23:51.821Z,11.10
2018-10-06T00:26:19.702Z,10.90
2018-10-06T00:28:47.969Z,11.65
2018-10-06T00:31:16.196Z,11.07
2018-10-06T00:33:44.117Z,11.40
2018-10-06T00:36:12.332Z,11.43
2018-10-06T00:38:40.222Z,11.80
2018-10-06T00:41:08.288Z,12.85
2018-10-06T00:43:36.401Z,12.15
2018-10-06T00:46:04.267Z,12.20
2018-10-06T00:48:32.377Z,12.30
2018-10-06T00:51:01.536Z,11.75
2018-10-06T00:53:32.004Z,11.80
2018-10-06T00:55:59.937Z,13.43
2018-10-06T00:58:27.792Z,12.53
2018-10-06T01:00:55.636Z,12.53
2018-10-06T01:03:23.596Z,12.37
2018-10-06T01:05:51.493Z,13.10
2018-10-06T01:08:19.364Z,13.10
2018-10-06T01:10:47.228Z,12.17
2018-10-06T01:13:15.102Z,12.47
2018-10-06T01:15:42.968Z,12.90
2018-10-06T01:18:10.813Z,12.90
2018-10-06T01:20:38.738Z,12.50
2018-10-06T01:23:06.598Z,12.70
2018-10-06T01:25:34.540Z,12.63
2018-10-06T01:28:02.511Z,12.80
2018-10-06T01:30:30.377Z,12.67
2018-10-06T01:32:58.244Z,13.50
2018-10-06T01:35:26.130Z,13.27
2018-10-06T01:37:53.957Z,12.50
2018-10-06T01:40:21.855Z,12.40
2018-10-06T01:42:49.713Z,12.53
2018-10-06T01:45:17.605Z,13.10
2018-10-06T01:47:45.454Z,13.20
2018-10-06T01:50:13.341Z,13.53
2018-10-06T01:52:41.161Z,12.87
2018-10-06T01:55:09.066Z,13.00
2018-10-06T01:57:37.353Z,13.20
2018-10-06T02:00:05.622Z,12.95
2018-10-06T02:02:34.718Z,13.35
2018-10-06T02:05:02.597Z,14.00
2018-10-06T02:07:30.593Z,13.70
2018-10-06T02:09:58.469Z,13.50
2018-10-06T02:12:26.356Z,13.50
2018-10-06T02:14:54.209Z,13.90
2018-10-06T02:17:22.094Z,14.10
2018-10-06T02:19:49.968Z,13.70
2018-10-06T02:22:17.872Z,14.25
2018-10-06T02:24:45.914Z,12.70
2018-10-06T02:27:13.804Z,13.30
2018-10-06T02:29:41.693Z,13.50
2018-10-06T02:32:09.608Z,14.40
2018-10-06T02:34:37.447Z,15.00
2018-10-06T02:37:05.430Z,14.00
2018-10-06T02:39:33.301Z,14.00
2018-10-06T02:42:01.245Z,14.40
2018-10-06T02:44:29.130Z,14.60
2018-10-06T02:46:57.077Z,14.90
2018-10-06T02:49:25.026Z,15.20
2018-10-06T02:51:52.903Z,14.50
2018-10-06T02:54:20.757Z,14.10
2018-10-06T02:56:48.763Z,15.25
2018-10-06T02:59:16.576Z,14.70
2018-10-06T03:02:47.787Z,15.60
2018-10-06T03:05:15.735Z,14.20
2018-10-06T03:07:43.581Z,15.30
2018-10-06T03:10:11.570Z,15.60
2018-10-06T03:12:39.539Z,15.70
2018-10-06T03:15:07.902Z,14.90
2018-10-06T03:17:35.782Z,15.20
2018-10-06T03:20:03.657Z,14.55
2018-10-06T03:24:58.651Z,15.80
2018-10-06T03:27:26.533Z,15.20
2018-10-06T03:29:54.386Z,14.73
2018-10-06T03:32:22.228Z,14.57
2018-10-06T03:34:50.057Z,14.67
2018-10-06T03:37:17.892Z,15.13
2018-10-06T03:39:45.804Z,15.10
2018-10-06T03:42:13.663Z,15.80
2018-10-06T03:44:41.533Z,14.87
2018-10-06T03:47:09.470Z,14.83
2018-10-06T03:49:37.335Z,14.50
2018-10-06T03:52:05.308Z,15.27
2018-10-06T03:54:33.226Z,15.10
2018-10-06T03:57:01.162Z,15.40
2018-10-06T03:59:28.990Z,15.77
2018-10-06T04:01:56.869Z,15.73
2018-10-06T04:04:24.753Z,15.40
2018-10-06T04:06:52.580Z,14.50
2018-10-06T04:09:20.508Z,15.33
2018-10-06T04:11:48.383Z,15.93
2018-10-06T04:14:16.238Z,14.73
2018-10-06T04:16:44.080Z,15.00
2018-10-06T04:19:12.085Z,15.23
2018-10-06T04:21:48.099Z,15.93
2018-10-06T04:24:16.973Z,15.73
2018-10-06T04:26:44.873Z,16.07
2018-10-06T04:29:12.685Z,15.80
2018-10-06T04:31:40.800Z,15.20
2018-10-06T04:34:08.757Z,16.13
2018-10-06T04:36:36.885Z,17.90
2018-10-06T04:39:07.449Z,19.07
2018-10-06T04:41:35.412Z,20.07
2018-10-06T04:44:03.411Z,20.20
2018-10-06T04:46:31.849Z,22.90
2018-10-06T04:48:59.826Z,21.03
2018-10-06T04:51:27.827Z,21.45
2018-10-06T04:53:55.713Z,19.50
2018-10-06T04:56:23.708Z,17.90
2018-10-06T04:58:52.533Z,16.60
2018-10-06T05:01:21.667Z,17.00
2018-10-06T05:03:49.690Z,16.35
2018-10-06T05:06:17.516Z,15.43
2018-10-06T05:08:45.405Z,15.33
2018-10-06T05:11:13.220Z,15.80
2018-10-06T05:13:41.104Z,15.30
2018-10-06T05:16:09.063Z,16.33
2018-10-06T05:18:36.930Z,16.10
2018-10-06T05:21:04.892Z,16.27
2018-10-06T05:23:32.889Z,16.20
2018-10-06T05:26:00.781Z,14.53
2018-10-06T05:28:28.673Z,14.87
2018-10-06T05:30:56.531Z,15.40
2018-10-06T05:33:24.389Z,16.20
2018-10-06T05:35:52.238Z,14.90
2018-10-06T05:38:20.108Z,15.50
2018-10-06T05:40:47.947Z,16.60
2018-10-06T05:43:15.895Z,15.00
2018-10-06T05:45:43.966Z,14.87
2018-10-06T05:48:11.796Z,14.77
2018-10-06T05:50:39.668Z,15.10
2018-10-06T05:53:07.633Z,14.60
2018-10-06T05:55:35.477Z,15.90
2018-10-06T05:58:03.366Z,14.65
2018-10-06T06:00:31.529Z,16.00
2018-10-06T06:02:59.580Z,16.05
2018-10-06T06:05:28.167Z,14.90
2018-10-06T06:07:56.049Z,15.10
2018-10-06T06:10:23.977Z,15.00
2018-10-06T06:12:53.706Z,14.37
2018-10-06T06:18:01.391Z,14.70
2018-10-06T06:20:29.212Z,13.75
2018-10-06T06:22:58.634Z,14.13
2018-10-06T06:25:26.744Z,14.55
2018-10-06T06:27:58.757Z,14.97
2018-10-06T06:30:26.628Z,14.10
2018-10-06T06:32:56.386Z,14.00
2018-10-06T06:35:24.251Z,13.90
2018-10-06T06:37:56.469Z,14.25
2018-10-06T06:40:26.348Z,14.35
2018-10-06T06:42:59.825Z,14.90
2018-10-06T06:45:28.737Z,15.50
2018-10-06T06:47:56.630Z,14.40
2018-10-06T06:50:26.519Z,14.15
2018-10-06T06:52:55.426Z,14.30
2018-10-06T06:55:23.363Z,14.20
2018-10-06T06:57:51.626Z,14.85
2018-10-06T07:00:19.472Z,13.80
2018-10-06T07:02:47.324Z,15.50
2018-10-06T07:05:16.620Z,14.50
2018-10-06T07:07:44.503Z,13.40
2018-10-06T07:10:12.341Z,13.20
2018-10-06T07:12:40.258Z,13.50
2018-10-06T07:15:08.069Z,13.20
2018-10-06T07:17:35.931Z,13.50
2018-10-06T07:20:03.760Z,12.90
2018-10-06T07:22:31.673Z,12.50
2018-10-06T07:24:59.602Z,13.10
2018-10-06T07:27:27.552Z,12.90
2018-10-06T07:29:55.636Z,12.30
2018-10-06T07:32:23.499Z,12.60
2018-10-06T07:34:51.352Z,12.60
2018-10-06T07:37:19.210Z,13.40
2018-10-06T07:39:47.052Z,12.75
2018-10-06T07:47:09.376Z,12.00
2018-10-06T07:54:31.391Z,12.70
2018-10-06T07:56:59.300Z,12.70
2018-10-06T08:11:42.720Z,11.60
2018-10-06T08:38:41.857Z,10.60
2018-10-06T08:41:09.857Z,10.80
2018-10-06T08:58:20.408Z,10.37
2018-10-06T09:10:17.643Z,10.55
2018-10-06T09:12:45.492Z,8.95
2018-10-06T09:15:13.347Z,9.70
2018-10-06T09:17:41.243Z,9.50
2018-10-06T09:20:09.040Z,9.95
2018-10-06T09:22:37.909Z,9.53
2018-10-06T09:25:05.774Z,9.53
2018-10-06T09:27:33.715Z,9.75
2018-10-06T09:32:30.593Z,9.10
2018-10-06T10:53:32.085Z,8.73
2018-10-06T11:00:54.114Z,9.27
2018-10-06T11:05:49.018Z,7.10
2018-10-06T11:08:16.898Z,7.90
2018-10-06T11:10:44.777Z,8.40
2018-10-06T11:13:12.619Z,7.67
2018-10-06T11:15:40.440Z,8.73
2018-10-06T11:18:08.310Z,8.27
2018-10-06T11:20:36.229Z,9.10
2018-10-06T11:23:04.090Z,8.20
2018-10-06T11:25:31.933Z,8.80
2018-10-06T11:27:59.808Z,7.67
2018-10-06T11:30:27.702Z,8.30
2018-10-06T11:32:55.573Z,7.77
2018-10-06T11:35:23.417Z,7.97
2018-10-06T11:37:51.326Z,8.13
2018-10-06T11:40:19.125Z,8.03
2018-10-06T11:42:46.973Z,8.30
2018-10-06T11:45:14.866Z,7.87
2018-10-06T11:47:42.718Z,7.50
2018-10-06T11:50:10.602Z,8.30
2018-10-06T11:52:38.480Z,8.17
2018-10-06T11:55:06.327Z,8.43
2018-10-06T11:57:34.189Z,8.07
2018-10-06T12:00:02.106Z,7.70
2018-10-06T12:02:29.884Z,7.40
2018-10-06T12:04:57.737Z,8.47
2018-10-06T12:07:25.623Z,7.10
2018-10-06T12:09:53.493Z,7.20
2018-10-06T12:12:21.344Z,7.50
2018-10-06T12:14:49.168Z,8.00
2018-10-06T12:17:17.037Z,6.77
2018-10-06T12:19:44.844Z,7.20
2018-10-06T12:22:12.701Z,7.33
2018-10-06T12:24:40.549Z,6.70
2018-10-06T12:27:08.453Z,7.30
2018-10-06T12:29:36.341Z,7.67
2018-10-06T12:32:04.185Z,7.03
2018-10-06T12:35:35.222Z,7.10
2018-10-06T12:38:03.065Z,6.33
2018-10-06T12:40:30.925Z,6.50
2018-10-06T12:45:25.881Z,6.30
2018-10-06T12:52:47.819Z,6.30
2018-10-06T15:17:25.905Z,5.80
2018-10-06T15:19:53.746Z,6.10
2018-10-06T16:28:32.580Z,11.27
2018-10-06T16:31:00.473Z,14.40
2018-10-06T16:33:28.542Z,10.53
2018-10-06T16:57:59.795Z,9.10
2018-10-06T17:00:27.658Z,10.23
2018-10-06T17:02:55.480Z,10.87
2018-10-06T17:05:23.361Z,10.97
2018-10-06T17:07:51.254Z,9.67
2018-10-06T17:10:19.037Z,9.30
2018-10-06T17:12:46.924Z,8.20
2018-10-06T17:15:14.701Z,9.20
2018-10-06T17:22:37.645Z,9.03
2018-10-06T17:25:05.554Z,9.03
2018-10-06T17:27:33.406Z,8.90
2018-10-06T17:30:01.278Z,9.57
2018-10-06T17:32:29.096Z,10.20
2018-10-06T17:34:57.980Z,10.13
2018-10-06T17:37:25.808Z,11.70
2018-10-06T17:39:53.640Z,13.43
2018-10-06T17:42:21.480Z,12.23
2018-10-06T17:44:49.305Z,13.10
2018-10-06T17:47:17.176Z,12.40
2018-10-06T17:49:45.154Z,12.60
2018-10-06T17:52:12.952Z,12.37
2018-10-06T17:54:40.798Z,11.90
2018-10-06T17:57:08.649Z,10.60
2018-10-06T17:59:36.524Z,10.40
2018-10-06T18:02:04.438Z,11.37
2018-10-06T18:04:33.292Z,10.97
2018-10-06T18:07:01.236Z,11.20
2018-10-06T18:09:29.097Z,11.10
2018-10-06T18:11:58.095Z,12.00
2018-10-06T18:14:25.972Z,11.73
2018-10-06T18:16:53.853Z,12.47
2018-10-06T18:19:21.684Z,13.40
2018-10-06T18:21:49.509Z,12.80
2018-10-06T18:24:17.355Z,13.00
2018-10-06T18:26:45.173Z,13.30
2018-10-06T18:29:13.122Z,13.57
2018-10-06T18:31:40.921Z,13.57
2018-10-06T18:34:08.771Z,14.00
2018-10-06T18:36:36.743Z,15.20
2018-10-06T18:39:05.232Z,13.53
2018-10-06T18:41:33.112Z,15.53
2018-10-06T18:44:00.958Z,14.23
2018-10-06T18:46:28.846Z,15.57
2018-10-06T18:48:56.862Z,14.90
2018-10-06T18:51:24.702Z,15.00
2018-10-06T18:53:52.569Z,15.10
2018-10-06T18:56:20.422Z,15.70
2018-10-06T18:58:48.259Z,15.00
2018-10-06T19:01:16.105Z,15.20
2018-10-06T19:03:44.128Z,14.33
2018-10-06T19:06:11.882Z,15.70
2018-10-06T19:08:39.753Z,15.50
2018-10-06T19:11:07.602Z,15.93
2018-10-06T19:13:35.465Z,15.20
2018-10-06T19:16:03.347Z,14.53
2018-10-06T19:18:31.208Z,14.37
2018-10-06T19:20:59.059Z,14.63
2018-10-06T19:23:26.906Z,14.40
2018-10-06T19:25:54.805Z,13.83
2018-10-06T19:28:22.678Z,14.40
2018-10-06T19:30:51.745Z,12.93
2018-10-06T19:33:19.641Z,14.10
2018-10-06T19:35:47.493Z,13.67
2018-10-06T19:38:15.362Z,15.00
2018-10-06T19:40:43.171Z,14.27
2018-10-06T19:43:11.016Z,13.87
2018-10-06T19:45:38.904Z,13.53
2018-10-06T19:48:06.725Z,12.63
2018-10-06T19:50:34.592Z,12.73
2018-10-06T19:53:02.450Z,13.77
2018-10-06T19:55:30.334Z,13.40
2018-10-06T19:57:58.189Z,11.63
2018-10-06T20:00:26.047Z,13.50
2018-10-06T20:02:53.923Z,12.60
2018-10-06T20:07:48.829Z,12.07
2018-10-06T20:10:16.681Z,12.90
2018-10-06T20:12:44.511Z,12.80
2018-10-06T20:15:12.401Z,14.60
2018-10-06T20:17:40.261Z,13.73
2018-10-06T20:21:12.480Z,13.30
2018-10-06T20:23:41.420Z,13.27
2018-10-06T20:26:09.289Z,14.30
2018-10-06T20:28:37.121Z,14.13
2018-10-06T20:31:05.014Z,14.30
2018-10-06T20:33:32.824Z,14.80
2018-10-06T20:36:00.698Z,13.63
2018-10-06T20:38:29.542Z,14.60
2018-10-06T20:40:57.401Z,13.70
2018-10-06T20:43:25.265Z,14.00
2018-10-06T20:45:53.075Z,15.10
2018-10-06T20:48:20.917Z,14.50
2018-10-06T20:50:48.808Z,15.90
2018-10-06T20:53:16.705Z,14.57
2018-10-06T20:55:44.520Z,15.20
2018-10-06T20:58:13.344Z,14.47
2018-10-06T21:00:41.203Z,14.30
2018-10-06T21:03:09.064Z,13.90
2018-10-06T21:05:37.886Z,14.10
2018-10-06T21:08:05.888Z,14.63
2018-10-06T21:10:35.874Z,15.00
2018-10-06T21:13:03.754Z,15.33
2018-10-06T21:15:31.599Z,15.90
2018-10-06T21:17:59.477Z,16.50
2018-10-06T21:20:27.292Z,15.60
2018-10-06T21:22:55.157Z,15.03
2018-10-06T21:25:23.017Z,15.20
2018-10-06T21:27:50.862Z,13.90
2018-10-06T21:30:18.704Z,14.50
2018-10-06T21:32:46.673Z,14.60
2018-10-06T21:35:14.540Z,14.13
2018-10-06T21:37:42.372Z,14.70
2018-10-06T21:40:10.246Z,14.87
2018-10-06T21:42:38.115Z,15.57
2018-10-06T21:45:05.944Z,13.90
2018-10-06T21:47:33.842Z,14.20
2018-10-06T21:50:01.676Z,14.70
2018-10-06T21:52:29.517Z,14.90
2018-10-06T21:54:57.389Z,14.47
2018-10-06T21:57:25.224Z,14.73
2018-10-06T21:59:53.073Z,14.60
2018-10-06T22:02:20.923Z,13.80
2018-10-06T22:04:48.768Z,14.03
2018-10-06T22:07:16.653Z,15.10
2018-10-06T22:09:44.488Z,13.87
2018-10-06T22:12:12.416Z,15.20
2018-10-06T22:14:40.285Z,14.60
2018-10-06T22:17:08.496Z,14.33
2018-10-06T22:19:36.312Z,15.10
2018-10-06T22:22:04.148Z,14.37
2018-10-06T22:24:31.972Z,14.37
2018-10-06T22:26:59.946Z,15.40
2018-10-06T22:29:27.782Z,15.20
2018-10-06T22:31:55.646Z,15.20
2018-10-06T22:34:23.481Z,15.90
2018-10-06T22:36:51.305Z,14.37
2018-10-06T22:39:19.153Z,15.03
2018-10-06T22:41:47.000Z,14.83
2018-10-06T22:44:14.848Z,14.93
2018-10-06T22:46:42.672Z,15.73
2018-10-06T22:51:18.753Z,16.20
2018-10-06T22:53:46.609Z,15.30
2018-10-06T22:56:15.530Z,16.37
2018-10-06T22:58:43.352Z,15.20
2018-10-06T23:01:11.194Z,14.97
2018-10-06T23:03:41.081Z,15.57
2018-10-06T23:06:09.135Z,15.07
2018-10-06T23:08:37.018Z,15.53
2018-10-06T23:11:05.912Z,14.73
2018-10-06T23:13:33.728Z,16.10
2018-10-06T23:16:01.537Z,14.40
2018-10-06T23:18:30.458Z,15.60
2018-10-06T23:20:58.289Z,16.87
2018-10-06T23:23:27.265Z,15.73
2018-10-06T23:25:55.130Z,15.93
2018-10-06T23:28:23.049Z,16.47
2018-10-06T23:30:50.872Z,16.23
2018-10-06T23:33:18.769Z,16.40
2018-10-06T23:35:46.609Z,15.37
2018-10-06T23:38:16.484Z,15.23
2018-10-06T23:40:44.312Z,15.10
2018-10-06T23:43:12.140Z,14.87
2018-10-06T23:45:40.003Z,15.97
2018-10-06T23:48:07.820Z,15.10
2018-10-06T23:50:35.637Z,14.50
2018-10-06T23:53:04.502Z,16.27
2018-10-06T23:55:32.342Z,15.87
2018-10-06T23:58:00.201Z,15.93
